St.-pierre, Saint-Pierre Pierrefonds Airport (FMEP)

NameSaint-Pierre Pierrefonds Airport
CitySt.-pierre
CountryReunion
ICAOFMEP
IATAZSE
Altitude18 m
CoordinatesGoogle Map
Live Air TrafficLiveATC.net
METARFMEP 221700Z AUTO 00000KT 9999 FEW056 26/22 Q1012
2019-11-22 17:00:00 Wind: North (0°) 0 m/s - Visibility: > 10000 m - Temperature: 26 °C - Dew point: 22 °C - Humidity: 78.7% - Pressure: 1012 hPa

Sorry, no flights used the airport in this database.